Imperial County Airport
KIPL : rendu visible

Aérodrome :











RETROUVEZ-NOUS SUR...

 
LOGIN :

S'inscrire | Disclaimer

   EN    FR    IT 

 









Légende :    VFR   VFR Marginal   IFR   IFR Intensif   IFR Très Intensif
Visi : 
Plafond : 
>= 8 km
>= 3000ft
5 à 8 km
1000 à 3000 ft
1500m à 5 km
500 à 1000 ft
800 à 1500m
200 à 500 ft
< 800m
< 200 ft
Symboles :   Orages  Brouillard  Fortes neiges  Fortes précipitations  Vent > 20 kt






- Altitude de l'aérodrome : -54 ft


KIPL - Imperial County

DERNIER METAR :
  • 222253Z AUTO 36005KT 10SM CLR 20/09 A3009 RMK AO2 SLP187 T02000089

METARs EXPIRÉS :
  • 222153Z AUTO 35006KT 10SM CLR 21/09 A3010 RMK AO2 SLP191 T02060094
  • 222053Z AUTO VRB03KT 10SM FEW039 21/11 A3011 RMK AO2 SLP195 T02060106 58022

TAF KIPL
Valide du 22 à 18h jusqu'au 23 à 18h UTC


221720Z 2218/2318 04005KT P6SM FEW200
FM230500 27005KT P6SM FEW200



MET'MAP, la Météo Aéronautique d'un coup d'oeil ! - Copyright ORBIFLY Décembre 2007 - Disclaimer

ORBIFLY MET'MAP TEAM :

Programmation & Développement : Alexandra Zaïnal
Conception & Développement : Baudouin d'Aumeries
Co-Programmation & Développement : Marc-Olivier Méhu
Soutien technique & logistique : Manuel Goepfert

Contact : metmap@orbifly.com




SOURCES & CREDITS :

   NOAA       Earth
Advisory